Terminal Aerodrome Forecast
Issued by NWS

Home | Current Version | Previous Version | Text Only | Print | Product List | Glossary On
Versions: 1 2 3 4 5 6 7 8 9 10 11 12 13 14
161
FTUS46 KSEW 051735
TAFBFI
TAF
KBFI 051735Z 0518/0618 15006KT P6SM OVC100
     FM060000 17012G20KT 6SM -RA SCT030 OVC045
      TEMPO 0600/0604 17016G24KT 4SM RA BR SCT018 OVC030
     FM060400 19014G24KT 6SM -SHRA BR SCT018 BKN028 OVC050
     FM061000 19012KT P6SM VCSH SCT030 BKN080
     FM061400 17008KT P6SM VCSH SCT030 BKN050 OVC100=

USA.gov is the U.S. government's official web portal to all federal, state and local government web resources and services.